createdAt,value
2022-08-03T00:01:31.995Z,2.50
2022-08-03T00:03:59.509Z,2.50
2022-08-03T00:06:26.675Z,3.08
2022-08-03T00:08:53.781Z,2.60
2022-08-03T00:11:21.169Z,2.75
2022-08-03T00:13:48.307Z,3.00
2022-08-03T00:16:15.440Z,2.92
2022-08-03T00:18:42.805Z,2.78
2022-08-03T00:21:09.920Z,2.80
2022-08-03T00:23:51.699Z,2.90
2022-08-03T00:26:23.232Z,2.75
2022-08-03T00:28:50.508Z,2.87
2022-08-03T00:31:20.380Z,2.70
2022-08-03T00:34:05.996Z,3.08
2022-08-03T00:36:33.940Z,3.20
2022-08-03T00:39:01.086Z,3.17
2022-08-03T00:41:28.469Z,3.35
2022-08-03T00:43:55.544Z,3.75
2022-08-03T00:46:22.697Z,2.92
2022-08-03T00:48:50.348Z,3.17
2022-08-03T00:51:18.362Z,3.10
2022-08-03T00:53:46.063Z,3.45
2022-08-03T00:56:15.215Z,2.90
2022-08-03T00:58:44.800Z,3.70
2022-08-03T01:01:12.638Z,3.28
2022-08-03T01:03:40.818Z,3.12
2022-08-03T01:06:44.849Z,3.50
2022-08-03T01:09:18.011Z,3.47
2022-08-03T01:12:00.713Z,3.40
2022-08-03T01:17:20.705Z,3.65
2022-08-03T01:20:02.464Z,3.70
2022-08-03T01:22:52.359Z,4.07
2022-08-03T01:25:41.145Z,3.75
2022-08-03T01:28:16.868Z,3.90
2022-08-03T01:30:45.654Z,4.20
2022-08-03T01:33:17.327Z,4.03
2022-08-03T01:36:05.675Z,4.07
2022-08-03T01:38:34.741Z,4.47
2022-08-03T01:41:06.329Z,4.28
2022-08-03T01:44:27.004Z,4.62
2022-08-03T01:46:22.259Z,4.22
2022-08-03T01:48:49.821Z,4.70
2022-08-03T01:51:18.978Z,4.50
2022-08-03T01:53:47.234Z,4.70
2022-08-03T01:56:14.874Z,4.65
2022-08-03T01:58:42.412Z,4.22
2022-08-03T02:01:10.416Z,4.78
2022-08-03T02:04:00.677Z,4.65
2022-08-03T02:07:02.355Z,5.07
2022-08-03T02:09:19.590Z,4.35
2022-08-03T02:11:47.510Z,5.00
2022-08-03T02:14:15.444Z,4.80
2022-08-03T02:16:43.892Z,4.35
2022-08-03T02:19:11.576Z,4.70
2022-08-03T02:21:56.352Z,4.70
2022-08-03T02:24:26.574Z,4.53
2022-08-03T02:26:56.017Z,4.70
2022-08-03T02:29:39.457Z,5.00
2022-08-03T02:32:12.912Z,5.10
2022-08-03T02:34:41.148Z,5.03
2022-08-03T02:37:10.559Z,4.72
2022-08-03T02:39:38.651Z,4.55
2022-08-03T02:42:06.869Z,5.22
2022-08-03T02:44:35.704Z,5.78
2022-08-03T02:47:06.535Z,5.62
2022-08-03T02:49:42.153Z,5.05
2022-08-03T02:52:20.295Z,5.45
2022-08-03T02:54:49.761Z,5.50
2022-08-03T02:57:18.633Z,5.25
2022-08-03T02:59:46.782Z,5.30
2022-08-03T03:02:16.370Z,5.00
2022-08-03T03:05:50.533Z,5.35
2022-08-03T03:07:47.804Z,5.65
2022-08-03T03:10:22.556Z,5.45
2022-08-03T03:12:55.960Z,5.37
2022-08-03T03:15:24.865Z,5.60
2022-08-03T03:17:53.624Z,5.22
2022-08-03T03:20:29.381Z,6.00
2022-08-03T03:23:01.601Z,6.07
2022-08-03T03:25:32.637Z,5.75
2022-08-03T03:28:01.107Z,5.47
2022-08-03T03:30:30.135Z,5.28
2022-08-03T03:32:58.689Z,5.32
2022-08-03T03:35:27.780Z,5.62
2022-08-03T03:37:54.949Z,5.35
2022-08-03T03:40:23.780Z,5.28
2022-08-03T03:42:51.430Z,5.70
2022-08-03T03:45:19.047Z,6.00
2022-08-03T03:47:46.213Z,6.70
2022-08-03T03:50:15.578Z,6.12
2022-08-03T03:52:42.651Z,6.22
2022-08-03T03:55:09.832Z,6.40
2022-08-03T03:57:37.233Z,6.30
2022-08-03T04:00:05.038Z,6.20
2022-08-03T04:02:32.018Z,5.40
2022-08-03T04:05:18.051Z,5.93
2022-08-03T04:08:28.484Z,5.22
2022-08-03T04:11:00.417Z,5.65
2022-08-03T04:13:50.984Z,5.45
2022-08-03T04:16:21.301Z,6.10
2022-08-03T04:18:52.910Z,5.82
2022-08-03T04:21:21.534Z,5.70
2022-08-03T04:23:50.097Z,5.70
2022-08-03T04:26:21.261Z,5.70
2022-08-03T04:28:51.990Z,5.95
2022-08-03T04:31:22.695Z,5.20
2022-08-03T04:33:52.397Z,4.90
2022-08-03T04:36:25.377Z,5.90
2022-08-03T04:39:06.672Z,6.05
2022-08-03T04:42:02.229Z,5.30
2022-08-03T04:44:28.262Z,5.53
2022-08-03T04:46:56.597Z,5.57
2022-08-03T04:49:25.510Z,6.32
2022-08-03T04:51:52.720Z,5.62
2022-08-03T04:54:20.179Z,5.90
2022-08-03T04:56:47.541Z,5.25
2022-08-03T04:59:14.775Z,5.85
2022-08-03T05:01:44.712Z,6.87
2022-08-03T05:04:12.144Z,5.72
2022-08-03T05:06:47.854Z,5.70
2022-08-03T05:09:16.171Z,5.57
2022-08-03T05:12:03.442Z,5.85
2022-08-03T05:14:30.801Z,10.10
2022-08-03T05:16:57.823Z,5.50
2022-08-03T05:19:25.257Z,5.55
2022-08-03T05:21:53.125Z,5.32
2022-08-03T05:24:20.215Z,4.75
2022-08-03T05:26:47.337Z,5.37
2022-08-03T05:29:14.733Z,5.60
2022-08-03T05:31:41.894Z,5.35
2022-08-03T05:34:08.983Z,5.03
2022-08-03T05:36:36.432Z,5.03
2022-08-03T05:39:03.542Z,4.72
2022-08-03T05:41:37.225Z,5.22
2022-08-03T05:44:05.203Z,5.10
2022-08-03T05:46:32.367Z,5.68
2022-08-03T05:48:59.494Z,5.22
2022-08-03T05:51:27.754Z,4.72
2022-08-03T05:53:54.849Z,5.20
2022-08-03T05:56:24.352Z,5.45
2022-08-03T05:58:52.527Z,6.20
2022-08-03T06:01:23.699Z,5.07
2022-08-03T06:03:52.135Z,5.18
2022-08-03T06:06:19.456Z,5.43
2022-08-03T06:08:46.850Z,5.78
2022-08-03T06:11:14.416Z,5.50
2022-08-03T06:13:41.630Z,5.25
2022-08-03T06:16:09.051Z,5.10
2022-08-03T06:18:36.751Z,5.22
2022-08-03T06:21:14.846Z,5.68
2022-08-03T06:23:52.989Z,5.62
2022-08-03T06:26:21.116Z,5.93
2022-08-03T06:28:52.997Z,5.70
2022-08-03T06:31:33.435Z,5.10
2022-08-03T06:34:33.937Z,5.32
2022-08-03T06:36:52.388Z,5.70
2022-08-03T06:39:23.534Z,5.57
2022-08-03T06:41:51.653Z,5.75
2022-08-03T06:44:18.706Z,5.62
2022-08-03T06:46:46.103Z,6.03
2022-08-03T06:49:13.650Z,5.78
2022-08-03T06:52:04.259Z,5.60
2022-08-03T06:54:28.362Z,5.90
2022-08-03T06:56:55.458Z,5.90
2022-08-03T07:00:06.108Z,5.57
2022-08-03T07:02:10.488Z,5.30
2022-08-03T07:04:37.944Z,5.80
2022-08-03T07:07:05.028Z,5.47
2022-08-03T07:09:32.426Z,5.70
2022-08-03T07:11:59.474Z,5.28
2022-08-03T07:14:26.575Z,5.45
2022-08-03T07:16:54.016Z,5.60
2022-08-03T07:19:21.056Z,5.53
2022-08-03T07:21:48.113Z,5.45
2022-08-03T07:24:15.504Z,5.03
2022-08-03T07:26:42.652Z,5.30
2022-08-03T07:29:15.157Z,6.03
2022-08-03T07:31:42.863Z,5.40
2022-08-03T07:34:10.047Z,5.50
2022-08-03T07:36:38.109Z,5.50
2022-08-03T07:39:16.015Z,5.70
2022-08-03T07:41:45.677Z,5.35
2022-08-03T07:44:13.467Z,5.75
2022-08-03T07:46:40.591Z,5.35
2022-08-03T07:49:07.799Z,6.10
2022-08-03T07:51:35.310Z,5.65
2022-08-03T07:54:02.367Z,5.47
2022-08-03T07:56:30.531Z,5.53
2022-08-03T07:58:58.215Z,5.80
2022-08-03T08:01:25.539Z,6.07
2022-08-03T08:03:53.718Z,5.35
2022-08-03T08:06:21.770Z,5.47
2022-08-03T08:08:49.000Z,4.82
2022-08-03T08:11:16.448Z,4.75
2022-08-03T08:13:43.489Z,5.78
2022-08-03T08:16:10.640Z,6.50
2022-08-03T08:18:38.010Z,5.55
2022-08-03T08:21:05.081Z,5.55
2022-08-03T08:23:43.096Z,5.10
2022-08-03T08:26:12.302Z,5.32
2022-08-03T08:28:39.426Z,4.70
2022-08-03T08:31:06.726Z,4.82
2022-08-03T08:34:02.669Z,4.85
2022-08-03T08:36:22.293Z,5.37
2022-08-03T08:38:49.734Z,4.28
2022-08-03T08:41:17.332Z,4.43
2022-08-03T08:43:44.432Z,4.10
2022-08-03T08:46:13.189Z,4.65
2022-08-03T08:48:51.976Z,3.78
2022-08-03T08:51:20.878Z,3.85
2022-08-03T08:53:52.496Z,3.80
2022-08-03T08:56:20.530Z,4.55
2022-08-03T08:58:51.966Z,4.85
2022-08-03T09:01:20.399Z,4.30
2022-08-03T09:03:47.900Z,4.12
2022-08-03T09:06:15.370Z,4.40
2022-08-03T09:08:42.754Z,3.95
2022-08-03T09:11:11.105Z,4.93
2022-08-03T09:13:39.437Z,3.58
2022-08-03T09:16:27.020Z,3.50
2022-08-03T09:18:54.557Z,2.92
2022-08-03T09:21:32.141Z,3.62
2022-08-03T09:24:05.774Z,3.55
2022-08-03T09:26:35.935Z,3.95
2022-08-03T09:29:13.939Z,3.92
2022-08-03T09:31:43.707Z,3.67
2022-08-03T09:34:14.883Z,3.85
2022-08-03T09:36:50.668Z,4.00
2022-08-03T09:39:40.459Z,3.20
2022-08-03T09:42:23.948Z,3.90
2022-08-03T09:44:52.234Z,3.33
2022-08-03T09:47:29.884Z,3.60
2022-08-03T09:50:02.300Z,4.22
2022-08-03T09:52:49.433Z,2.90
2022-08-03T09:56:32.896Z,3.65
2022-08-03T09:58:10.413Z,3.42
2022-08-03T10:01:00.228Z,4.00
2022-08-03T10:03:30.263Z,3.60
2022-08-03T10:05:59.964Z,3.60
2022-08-03T10:08:27.677Z,3.72
2022-08-03T10:10:54.821Z,3.80
2022-08-03T10:13:22.933Z,3.92
2022-08-03T10:16:21.763Z,4.85
2022-08-03T10:18:38.315Z,4.35
2022-08-03T10:21:09.007Z,4.12
2022-08-03T10:23:38.330Z,3.92
2022-08-03T10:26:08.231Z,4.40
2022-08-03T10:28:44.543Z,4.12
2022-08-03T10:31:14.246Z,4.20
2022-08-03T10:33:50.158Z,3.75
2022-08-03T10:36:24.651Z,3.65
2022-08-03T10:38:53.076Z,3.45
2022-08-03T10:41:26.745Z,3.85
2022-08-03T10:44:09.788Z,3.83
2022-08-03T10:46:44.147Z,3.35
2022-08-03T10:49:16.134Z,3.60
2022-08-03T10:51:45.620Z,3.17
2022-08-03T10:54:37.417Z,3.62
2022-08-03T10:57:23.453Z,3.53
2022-08-03T10:59:54.625Z,3.00
2022-08-03T11:02:22.080Z,3.05
2022-08-03T11:05:28.782Z,2.80
2022-08-03T11:08:18.072Z,3.00
2022-08-03T11:10:45.372Z,3.00
2022-08-03T11:13:19.988Z,2.90
2022-08-03T11:15:50.026Z,3.30
2022-08-03T11:18:17.690Z,3.58
2022-08-03T11:20:54.309Z,3.95
2022-08-03T11:24:05.524Z,4.10
2022-08-03T11:26:34.380Z,3.60
2022-08-03T11:29:27.440Z,3.87
2022-08-03T11:31:54.618Z,3.70
2022-08-03T11:34:22.060Z,3.97
2022-08-03T11:37:22.498Z,4.03
2022-08-03T11:39:52.995Z,4.20
2022-08-03T11:42:23.128Z,3.70
2022-08-03T11:44:51.357Z,3.50
2022-08-03T11:47:20.149Z,3.55
2022-08-03T11:49:48.609Z,3.53
2022-08-03T11:52:19.594Z,3.10
2022-08-03T11:54:56.539Z,3.42
2022-08-03T11:59:15.325Z,3.50
2022-08-03T12:00:30.492Z,3.60
2022-08-03T12:03:02.932Z,3.50
2022-08-03T12:05:35.021Z,3.35
2022-08-03T12:08:06.711Z,3.42
2022-08-03T12:10:35.003Z,3.33
2022-08-03T12:13:05.941Z,3.40
2022-08-03T12:15:57.495Z,3.25
2022-08-03T12:18:25.584Z,2.92
2022-08-03T12:20:54.301Z,3.15
2022-08-03T12:23:27.344Z,3.10
2022-08-03T12:26:03.727Z,3.00
2022-08-03T12:28:37.104Z,2.58
2022-08-03T12:31:09.632Z,3.05
2022-08-03T12:33:55.553Z,2.95
2022-08-03T12:36:23.203Z,3.20
2022-08-03T12:39:16.519Z,3.20
2022-08-03T12:41:44.078Z,2.78
2022-08-03T12:44:11.114Z,2.60
2022-08-03T12:46:45.418Z,2.78
2022-08-03T12:49:17.182Z,3.00
2022-08-03T12:51:44.236Z,3.25
2022-08-03T12:54:24.528Z,2.65
2022-08-03T12:57:05.264Z,2.90
2022-08-03T12:59:40.633Z,2.97
2022-08-03T13:02:20.074Z,2.90
2022-08-03T13:04:52.571Z,2.97
2022-08-03T13:07:21.472Z,3.92
2022-08-03T13:09:52.951Z,3.10
2022-08-03T13:12:28.675Z,2.87
2022-08-03T13:15:00.310Z,3.12
2022-08-03T13:17:28.171Z,3.08
2022-08-03T13:19:56.314Z,2.60
2022-08-03T13:22:26.022Z,3.08
2022-08-03T13:24:57.787Z,2.83
2022-08-03T13:28:05.435Z,6.62
2022-08-03T13:30:13.376Z,2.95
2022-08-03T13:32:40.673Z,3.30
2022-08-03T13:35:09.114Z,2.72
2022-08-03T13:37:37.309Z,3.00
2022-08-03T13:40:06.473Z,3.15
2022-08-03T13:42:35.049Z,3.00
2022-08-03T13:45:03.704Z,3.35
2022-08-03T13:47:31.079Z,2.80
2022-08-03T13:50:01.133Z,2.92
2022-08-03T13:52:35.165Z,2.62
2022-08-03T13:55:04.579Z,2.80
2022-08-03T13:58:02.398Z,3.10
2022-08-03T14:00:27.200Z,2.60
2022-08-03T14:03:13.805Z,2.92
2022-08-03T14:05:44.997Z,2.95
2022-08-03T14:08:12.713Z,4.18
2022-08-03T14:10:41.936Z,3.33
2022-08-03T14:13:10.450Z,2.80
2022-08-03T14:15:38.692Z,2.72
2022-08-03T14:18:15.830Z,2.92
2022-08-03T14:20:56.795Z,3.30
2022-08-03T14:23:24.869Z,3.37
2022-08-03T14:25:53.044Z,3.17
2022-08-03T14:28:25.136Z,3.40
2022-08-03T14:30:53.835Z,3.10
2022-08-03T14:33:21.732Z,3.55
2022-08-03T14:35:49.513Z,2.85
2022-08-03T14:38:17.173Z,2.95
2022-08-03T14:40:48.091Z,3.17
2022-08-03T14:43:17.869Z,3.00
2022-08-03T14:45:45.321Z,3.37
2022-08-03T14:50:29.293Z,2.80
2022-08-03T14:51:00.086Z,3.30
2022-08-03T14:53:28.725Z,3.10
2022-08-03T14:55:55.800Z,2.83
2022-08-03T14:58:25.223Z,3.12
2022-08-03T15:00:54.180Z,3.20
2022-08-03T15:03:26.272Z,2.90
2022-08-03T15:05:57.797Z,3.17
2022-08-03T15:08:25.834Z,3.12
2022-08-03T15:10:54.301Z,3.08
2022-08-03T15:13:22.151Z,2.90
2022-08-03T15:15:49.911Z,2.62
2022-08-03T15:18:17.083Z,2.85
2022-08-03T15:20:46.243Z,3.10
2022-08-03T15:23:15.263Z,3.00
2022-08-03T15:26:03.893Z,2.90
2022-08-03T15:28:33.585Z,3.10
2022-08-03T15:31:01.464Z,3.00
2022-08-03T15:33:29.147Z,2.85
2022-08-03T15:35:57.072Z,2.67
2022-08-03T15:38:26.069Z,2.80
2022-08-03T15:40:55.055Z,2.72
2022-08-03T15:43:25.446Z,3.03
2022-08-03T15:46:12.679Z,3.22
2022-08-03T15:48:41.152Z,2.87
2022-08-03T15:51:08.573Z,2.97
2022-08-03T15:53:35.903Z,2.50
2022-08-03T15:56:09.393Z,3.00
2022-08-03T15:59:11.352Z,3.15
2022-08-03T16:01:26.291Z,2.70
2022-08-03T16:03:53.807Z,3.17
2022-08-03T16:06:29.396Z,3.10
2022-08-03T16:09:01.854Z,3.75
2022-08-03T16:11:29.263Z,2.85
2022-08-03T16:14:12.414Z,2.78
2022-08-03T16:16:46.783Z,3.45
2022-08-03T16:19:13.934Z,3.10
2022-08-03T16:21:48.143Z,2.95
2022-08-03T16:24:17.222Z,2.65
2022-08-03T16:26:47.071Z,3.08
2022-08-03T16:29:23.475Z,3.17
2022-08-03T16:31:52.168Z,2.75
2022-08-03T16:34:20.000Z,3.10
2022-08-03T16:36:47.084Z,2.90
2022-08-03T16:39:14.517Z,3.00
2022-08-03T16:41:53.665Z,3.22
2022-08-03T16:44:29.809Z,2.83
2022-08-03T16:46:59.349Z,2.72
2022-08-03T16:49:54.832Z,3.08
2022-08-03T16:52:18.112Z,3.37
2022-08-03T16:54:50.682Z,3.45
2022-08-03T16:57:56.382Z,3.20
2022-08-03T17:00:32.999Z,3.00
2022-08-03T17:03:04.374Z,2.90
2022-08-03T17:05:43.635Z,3.35
2022-08-03T17:08:15.902Z,3.30
2022-08-03T17:10:45.279Z,3.22
2022-08-03T17:13:21.769Z,3.30
2022-08-03T17:15:57.886Z,3.15
2022-08-03T17:18:32.463Z,3.30
2022-08-03T17:21:03.320Z,3.80
2022-08-03T17:24:12.578Z,3.22
2022-08-03T17:26:44.647Z,3.53
2022-08-03T17:29:13.348Z,3.10
2022-08-03T17:31:48.708Z,3.40
2022-08-03T17:34:18.729Z,3.65
2022-08-03T17:37:03.673Z,3.10
2022-08-03T17:39:57.168Z,3.28
2022-08-03T17:42:29.227Z,3.28
2022-08-03T17:45:02.379Z,3.83
2022-08-03T17:47:42.949Z,3.47
2022-08-03T17:50:25.254Z,3.53
2022-08-03T17:53:07.854Z,3.00
2022-08-03T17:55:54.799Z,4.03
2022-08-03T17:58:39.806Z,3.62
2022-08-03T18:02:00.218Z,3.17
2022-08-03T18:04:30.340Z,3.50
2022-08-03T18:06:59.742Z,3.47
2022-08-03T18:10:06.398Z,3.25
2022-08-03T18:12:26.865Z,3.40
2022-08-03T18:15:07.796Z,3.67
2022-08-03T18:17:55.949Z,3.20
2022-08-03T18:20:33.029Z,3.75
2022-08-03T18:23:06.143Z,3.33
2022-08-03T18:25:44.948Z,3.62
2022-08-03T18:28:14.389Z,3.30
2022-08-03T18:30:53.894Z,3.58
2022-08-03T18:34:19.273Z,3.50
2022-08-03T18:36:18.126Z,3.70
2022-08-03T18:38:47.561Z,3.40
2022-08-03T18:41:20.889Z,3.22
2022-08-03T18:44:07.845Z,3.72
2022-08-03T18:47:16.203Z,3.40
2022-08-03T18:49:59.905Z,3.20
2022-08-03T18:52:34.399Z,3.80
2022-08-03T18:55:19.678Z,3.42
2022-08-03T18:57:52.536Z,3.58
2022-08-03T19:00:24.512Z,3.30
2022-08-03T19:03:20.561Z,3.42
2022-08-03T19:06:03.058Z,3.78
2022-08-03T19:09:13.104Z,3.62
2022-08-03T19:12:12.647Z,3.65
2022-08-03T19:14:35.563Z,3.40
2022-08-03T19:17:10.718Z,3.42
2022-08-03T19:19:44.120Z,3.58
2022-08-03T19:22:16.367Z,3.50
2022-08-03T19:24:45.445Z,3.35
2022-08-03T19:27:13.357Z,3.37
2022-08-03T19:29:59.366Z,3.08
2022-08-03T19:32:29.395Z,3.30
2022-08-03T19:35:00.812Z,3.00
2022-08-03T19:37:38.557Z,2.75
2022-08-03T19:40:10.792Z,3.00
2022-08-03T19:42:41.416Z,3.20
2022-08-03T19:45:11.180Z,2.80
2022-08-03T19:47:46.747Z,2.80
2022-08-03T19:53:07.060Z,2.65
2022-08-03T19:55:49.048Z,2.58
2022-08-03T19:58:28.394Z,2.53
2022-08-03T20:00:56.214Z,2.80
2022-08-03T20:03:27.836Z,2.67
2022-08-03T20:06:12.208Z,2.80
2022-08-03T20:08:44.982Z,2.30
2022-08-03T20:11:15.827Z,2.30
2022-08-03T20:13:48.380Z,2.42
2022-08-03T20:16:15.920Z,2.47
2022-08-03T20:18:43.159Z,2.70
2022-08-03T20:21:15.782Z,2.65
2022-08-03T20:24:01.904Z,2.35
2022-08-03T20:26:31.293Z,2.80
2022-08-03T20:29:09.220Z,2.42
2022-08-03T20:31:37.686Z,2.40
2022-08-03T20:34:06.421Z,2.53
2022-08-03T20:36:33.484Z,2.03
2022-08-03T20:39:00.775Z,2.55
2022-08-03T20:41:28.245Z,2.00
2022-08-03T20:43:57.851Z,2.12
2022-08-03T20:46:30.039Z,2.17
2022-08-03T20:49:05.292Z,2.55
2022-08-03T20:51:50.140Z,2.33
2022-08-03T20:54:29.510Z,2.30
2022-08-03T20:57:00.412Z,1.75
2022-08-03T20:59:36.908Z,2.10
2022-08-03T21:02:30.072Z,1.77
2022-08-03T21:05:03.352Z,1.87
2022-08-03T21:08:04.936Z,1.65
2022-08-03T21:10:37.833Z,1.80
2022-08-03T21:13:03.005Z,2.55
2022-08-03T21:16:06.687Z,1.87
2022-08-03T21:18:38.027Z,1.65
2022-08-03T21:21:06.451Z,1.67
2022-08-03T21:23:40.316Z,1.58
2022-08-03T21:26:18.033Z,1.77
2022-08-03T21:28:47.494Z,1.75
2022-08-03T21:31:24.896Z,1.62
2022-08-03T21:34:02.405Z,1.45
2022-08-03T21:36:34.028Z,1.40
2022-08-03T21:39:04.535Z,1.37
2022-08-03T21:41:32.351Z,1.20
2022-08-03T21:44:00.339Z,1.48
2022-08-03T21:46:30.639Z,1.20
2022-08-03T21:50:07.443Z,1.50
2022-08-03T21:51:50.569Z,1.60
2022-08-03T21:54:20.506Z,1.40
2022-08-03T21:56:48.544Z,1.50
2022-08-03T21:59:20.351Z,1.33
2022-08-03T22:01:49.385Z,1.55
2022-08-03T22:04:50.691Z,1.37
2022-08-03T22:07:10.074Z,1.37
2022-08-03T22:09:37.449Z,1.33
2022-08-03T22:12:05.054Z,1.10
2022-08-03T22:14:34.908Z,1.42
2022-08-03T22:17:03.492Z,1.45
2022-08-03T22:19:34.595Z,1.48
2022-08-03T22:22:06.059Z,1.30
2022-08-03T22:24:35.659Z,1.60
2022-08-03T22:27:21.957Z,1.40
2022-08-03T22:29:51.040Z,1.58
2022-08-03T22:32:18.336Z,1.50
2022-08-03T22:34:47.395Z,1.30
2022-08-03T22:37:17.862Z,1.35
2022-08-03T22:39:45.669Z,1.42
2022-08-03T22:42:13.710Z,1.30
2022-08-03T22:44:41.071Z,1.45
2022-08-03T22:47:09.703Z,1.58
2022-08-03T22:49:37.152Z,1.40
2022-08-03T22:52:06.318Z,1.67
2022-08-03T22:54:33.741Z,1.80
2022-08-03T22:57:00.983Z,1.60
2022-08-03T22:59:40.226Z,1.60
2022-08-03T23:02:20.723Z,1.85
2022-08-03T23:05:11.045Z,1.70
2022-08-03T23:07:56.270Z,1.95
2022-08-03T23:10:24.855Z,1.60
2022-08-03T23:12:52.979Z,1.50
2022-08-03T23:15:21.387Z,1.90
2022-08-03T23:17:57.441Z,1.77
2022-08-03T23:20:26.596Z,2.20
2022-08-03T23:22:54.722Z,1.80
2022-08-03T23:25:22.101Z,2.28
2022-08-03T23:28:05.095Z,2.20
2022-08-03T23:30:34.927Z,2.30
2022-08-03T23:33:03.151Z,2.40
2022-08-03T23:36:27.887Z,2.00
2022-08-03T23:38:36.850Z,2.30
2022-08-03T23:41:04.979Z,2.45
2022-08-03T23:43:51.339Z,2.20
2022-08-03T23:46:24.066Z,2.28
2022-08-03T23:48:51.433Z,2.20
2022-08-03T23:51:51.061Z,2.08
2022-08-03T23:54:30.437Z,2.10
2022-08-03T23:57:03.869Z,2.30
2022-08-03T23:59:58.961Z,2.40
